Skip Navigation Links
NOAA logo - Click to go to the NOAA homepage
NOAA's National Weather Service
Alaska Aviation Weather Unit
  NWS logo - Click to go to the NWS homepage
Left Navbar Graphic     15 AKDT = 23 GMT

   
NOAA is celebrating 200 years of science, service, and stewardship. Visit the NOAA 200th celebration Web site to learn more.
USA.gov is the U.S. Government's official Web portal to all Federal, state and local government Web resources and services.
Facebook
NWS on Facebook

Important Change Regarding the AAWU Web Presence

 

Over the last several months, the AAWU has been working to navigate its webpages to a nationally supported server. Security, as well as other needs, have necessitated the change.  We have been given an extension for the site changeover while we diligently work at addressing feedback received. As of July 14, 2017, aawu.arh.noaa.gov will be discontinued. The new AAWU web address is weather.gov/aawu. It is now live and will run in-parallel with the old site until it is discontinued on July 14, 2017. Please continue to send any feedback or questions regarding the new webpages to nws.ar.aawu.webauthors@noaa.gov.  Thank you for your patience during this time of transition.
AAWU Home :: Display TAF Add Bookmark
TAF PASY 102200Z 1022/1204 05015KT 9999 OVC010 QNH2990INS
      TX11/1100Z TN09/1112Z=
PASY 191740Z AUTO 14007KT 2 3/4SM BR SCT009 OVC014 05/05 A2902=

PASY 191750Z AUTO 15005KT 2 3/4SM BR SCT008 OVC016 04/04 A2901=

METAR PASY 191758Z COR 14007KT 5SM BR FEW008 BKN016 OVC021 04/04
     A2901=

PASY 191828Z AUTO 01003KT 2 3/4SM BR BKN020 OVC030 04/03 A2902=

PASY 191838Z AUTO 34003KT 3SM BR OVC018 04/03 A2902=

PASY 191848Z AUTO 03009KT 3SM BR OVC020 04/04 A2902=

METAR PASY 191858Z AUTO 03008KT 7SM -RA FEW003 SCT010 OVC019 04/04
     A2903=

PASY 191908Z AUTO 02008KT 5SM -RA BR FEW003 BKN018 OVC023 04/04
A2903=

PASY 191918Z AUTO 03008KT 6SM RA BR FEW003 SCT011 SCT016 OVC026
04/04 A2903=

PASY 191928Z AUTO 02010KT 7SM -RA FEW012 BKN018 OVC028 04/04 A2903=

PASY 191938Z AUTO 02013KT 7SM -RA BKN020 OVC030 05/04 A2903=

PASY 191947Z COR 02013KT 7SM BKN020 OVC032 05/04=

PASY 191947Z AUTO M 7SM BKN020 OVC032 05/04 M=

METAR PASY 191958Z 02013KT 7SM BKN020 OVC030 05/04 A2903=

PASY 192058Z COR 04013KT 7SM FEW020 BKN030 BKN070 05/04 A2905=

PASY 192130Z 35016KT 7SM -RA M 05/04 A2907=

PASY 192135Z AUTO 01016KT 7SM M 05/04 A2908=

PASY 192143Z AUTO 36015KT 7SM -RA M 05/04 A2908=

PASY 192145Z AUTO 34016KT 7SM -RA M 05/04 A2908=

PASY 192155Z AUTO 01016KT 5SM -RA BR SCT015 BKN022 OVC037 05/05
A2909=

PASY 192156Z AUTO 01016KT 5SM BR SCT015 BKN022 OVC037 05/05 A2908=

METAR PASY 192158Z AUTO 36015KT 5SM BR SCT015 BKN022 OVC038 05/05
     A2909=

PASY 192218Z AUTO 01015KT 7SM BKN014 BKN028 OVC038 05/05 A2910=

PASY 192232Z AUTO 01022G27KT 7SM RA FEW008 OVC014 05/05 A2911=

PASY 192243Z AUTO 36016G25KT 4SM BR SCT008 OVC014 05/05 A2912=

PASY 192253Z AUTO 02015KT 6SM BR FEW007 BKN011 BKN020 BKN035
OVC045 05/05 A2913=

METAR PASY 192258Z AUTO 02014KT 6SM BR FEW007 SCT011 BKN016 BKN022
     BKN033 OVC045 06/05 A2913=

PASY 192316Z AUTO 02017KT 7SM -RA SCT015 BKN024 OVC034 05/05 A2914=


NOAA's National Weather Service
Alaska Aviation Weather Unit
6930 Sand Lake Road
Anchorage, AK 99502-1845
Disclaimer
Credits
Glossary
Privacy Policy
About Us
Career Opportunities
Contact AAWU Internet Services Site last modified: April, 17th 2012